Terminal Aerodrome Forecast
Issued by NWS Duluth, MN

Home | Current Version | Previous Version | Text Only | Print | Product List | Glossary On
Versions: 1 2 3 4 5 6 7 8 9 10 11 12 13 14 15 16 17 18 19 20 21 22
000
FTUS43 KDLH 240437 AAC
TAFDLH
TAF AMD
KDLH 240437Z 2405/2424 05004KT P6SM FEW006 BKN035
     FM240700 VRB03KT 4SM BR BKN015
     FM241400 07007KT P6SM SCT008
     FM241800 09011KT P6SM SCT050=

USA.gov is the U.S. government's official web portal to all federal, state and local government web resources and services.